Time;durP1;ratioP1;P1;durP2;ratioP2;P2;SDS_P1;SDS_P2;PMS_P1;PMS_P2;Temp;Humidity;BMP_temperature;BMP_pressure;BME280_temperature;BME280_humidity;BME280_pressure;Samples;Min_cycle;Max_cycle;Signal;HPM_P1;HPM_P2
2024/01/07 00:01:21;;;;;;;;;;;;;;;3.67;100.00;95832.91;5084459;28;19966;-73
2024/01/07 00:03:47;;;;;;;;;;;;;;;3.68;100.00;95824.16;5083646;28;20006;-73
2024/01/07 00:06:13;;;;;;;;;;;;;;;3.69;100.00;95825.75;5084431;28;19945;-70
2024/01/07 00:08:39;;;;;;;;;;;;;;;3.71;100.00;95830.75;5084094;28;20003;-71
2024/01/07 00:11:05;;;;;;;;;;;;;;;3.72;100.00;95825.38;5084032;28;19989;-70
2024/01/07 00:13:31;;;;;;;;;;;;;;;3.70;100.00;95829.97;5087373;28;20159;-69
2024/01/07 00:15:56;;;;;;;;;;;;;;;3.70;100.00;95832.56;5086294;28;19937;-69
2024/01/07 00:18:23;;;;;;;;;;;;;;;3.70;100.00;95832.56;5088178;28;19938;-70
2024/01/07 00:20:50;;;;;;;;;;;;;;;3.70;100.00;95829.16;5086159;28;19960;-69
2024/01/07 00:23:16;;;;;;;;;;;;;;;3.71;100.00;95838.53;5086160;28;20227;-72
2024/01/07 00:25:41;;;;;;;;;;;;;;;3.69;100.00;95828.34;5087221;28;19964;-75
2024/01/07 00:28:07;;;;;;;;;;;;;;;3.67;100.00;95827.72;5087172;28;20238;-82
2024/01/07 00:30:33;;;;;;;;;;;;;;;3.66;100.00;95828.72;5087095;28;19945;-83
2024/01/07 00:32:59;;;;;;;;;;;;;;;3.66;100.00;95826.13;5087010;28;20013;-79
2024/01/07 00:35:25;;;;;;;;;;;;;;;3.64;100.00;95831.50;5087548;28;19959;-82
2024/01/07 00:37:50;;;;;;;;;;;;;;;3.63;100.00;95827.31;5086937;28;20113;-81
2024/01/07 00:40:16;;;;;;;;;;;;;;;3.65;100.00;95837.47;5086997;28;19943;-82
2024/01/07 00:42:42;;;;;;;;;;;;;;;3.61;100.00;95829.31;5087674;28;20212;-81
2024/01/07 00:45:08;;;;;;;;;;;;;;;3.57;100.00;95837.63;5085794;28;20218;-74
2024/01/07 00:47:34;;;;;;;;;;;;;;;3.55;100.00;95840.44;5087590;28;19934;-71
2024/01/07 00:50:00;;;;;;;;;;;;;;;3.55;100.00;95840.44;5086796;28;20017;-71
2024/01/07 00:52:26;;;;;;;;;;;;;;;3.58;100.00;95836.66;5086725;28;19934;-71
2024/01/07 00:54:52;;;;;;;;;;;;;;;3.60;100.00;95839.84;5086622;28;19957;-71
2024/01/07 00:57:18;;;;;;;;;;;;;;;3.61;100.00;95833.66;5087526;28;19940;-71
2024/01/07 00:59:43;;;;;;;;;;;;;;;3.58;100.00;95837.44;5086548;28;19942;-71
2024/01/07 01:02:09;;;;;;;;;;;;;;;3.56;100.00;95844.59;5086629;28;20007;-81
2024/01/07 01:04:37;;;;;;;;;;;;;;;3.54;100.00;95844.00;5086510;28;19942;-68
2024/01/07 01:07:03;;;;;;;;;;;;;;;3.52;100.00;95845.19;5086491;28;20136;-68
2024/01/07 01:09:29;;;;;;;;;;;;;;;3.50;100.00;95845.34;5086308;28;19962;-68
2024/01/07 01:11:55;;;;;;;;;;;;;;;3.49;100.00;95841.19;5086626;28;20003;-68
2024/01/07 01:14:21;;;;;;;;;;;;;;;3.51;100.00;95846.16;5086258;28;19969;-68
2024/01/07 01:16:47;;;;;;;;;;;;;;;3.48;100.00;95839.56;5087064;28;19946;-68
2024/01/07 01:19:13;;;;;;;;;;;;;;;3.48;100.00;95841.34;5086270;28;20227;-68
2024/01/07 01:21:38;;;;;;;;;;;;;;;3.46;100.00;95844.13;5086209;28;19984;-81
2024/01/07 01:24:04;;;;;;;;;;;;;;;3.44;100.00;95846.09;5086612;28;20217;-68
2024/01/07 01:26:30;;;;;;;;;;;;;;;3.43;100.00;95850.50;5086134;28;19963;-68
2024/01/07 01:28:56;;;;;;;;;;;;;;;3.43;100.00;95853.09;5086599;28;20004;-67
2024/01/07 01:31:22;;;;;;;;;;;;;;;3.43;100.00;95845.31;5086567;28;19934;-68
2024/01/07 01:33:48;;;;;;;;;;;;;;;3.39;100.00;95853.66;5085894;28;19965;-68
2024/01/07 01:36:14;;;;;;;;;;;;;;;3.38;100.00;95850.28;5085927;28;19932;-68
2024/01/07 01:38:39;;;;;;;;;;;;;;;3.37;100.00;95861.59;5085887;28;20016;-71
2024/01/07 01:41:05;;;;;;;;;;;;;;;3.37;100.00;95850.44;5085830;28;19932;-72
2024/01/07 01:43:31;;;;;;;;;;;;;;;3.38;100.00;95854.63;5085387;28;20098;-72
2024/01/07 01:45:57;;;;;;;;;;;;;;;3.40;100.00;95852.66;5085645;28;20179;-73
2024/01/07 01:48:23;;;;;;;;;;;;;;;3.42;100.00;95859.28;5085728;28;19937;-73
2024/01/07 01:50:49;;;;;;;;;;;;;;;3.39;100.00;95857.03;5084461;28;19950;-73
2024/01/07 01:53:15;;;;;;;;;;;;;;;3.36;100.00;95859.19;5085535;28;19957;-74
2024/01/07 01:55:42;;;;;;;;;;;;;;;3.34;100.00;95848.22;5085495;28;19938;-73
2024/01/07 01:58:12;;;;;;;;;;;;;;;3.31;100.00;95854.56;5085495;28;19940;-70
2024/01/07 02:00:38;;;;;;;;;;;;;;;3.32;100.00;95855.38;5085347;28;19943;-70
2024/01/07 02:03:04;;;;;;;;;;;;;;;3.28;100.00;95859.34;5085365;28;19974;-70
2024/01/07 02:05:30;;;;;;;;;;;;;;;3.25;100.00;95853.56;5085345;28;20250;-70
2024/01/07 02:07:56;;;;;;;;;;;;;;;3.24;100.00;95846.75;5085193;28;20240;-71
2024/01/07 02:10:22;;;;;;;;;;;;;;;3.22;100.00;95847.94;5083926;28;19989;-70
2024/01/07 02:12:48;;;;;;;;;;;;;;;3.23;100.00;95846.94;5085041;28;19944;-71
2024/01/07 02:15:14;;;;;;;;;;;;;;;3.21;100.00;95854.91;5085650;28;19949;-75
2024/01/07 02:17:40;;;;;;;;;;;;;;;3.19;100.00;95849.13;5085068;28;19935;-76
2024/01/07 02:20:06;;;;;;;;;;;;;;;3.21;100.00;95847.13;5085579;28;20003;-75
2024/01/07 02:22:32;;;;;;;;;;;;;;;3.20;100.00;95855.88;5085261;28;19938;-75
2024/01/07 02:24:58;;;;;;;;;;;;;;;3.18;100.00;95850.09;5085736;28;19938;-75
2024/01/07 02:27:24;;;;;;;;;;;;;;;3.18;100.00;95855.25;5084898;28;19942;-75
2024/01/07 02:29:50;;;;;;;;;;;;;;;3.17;100.00;95858.84;5084790;28;19944;-75
2024/01/07 02:32:15;;;;;;;;;;;;;;;3.17;100.00;95856.28;5084816;28;20248;-75
2024/01/07 02:34:41;;;;;;;;;;;;;;;3.14;100.00;95848.84;5084221;28;19959;-72
2024/01/07 02:37:07;;;;;;;;;;;;;;;3.15;100.00;95857.41;5084706;28;19944;-73
2024/01/07 02:39:33;;;;;;;;;;;;;;;3.13;100.00;95849.03;5084650;28;19935;-73
2024/01/07 02:41:59;;;;;;;;;;;;;;;3.11;100.00;95856.19;5084838;28;19941;-73
2024/01/07 02:44:24;;;;;;;;;;;;;;;3.09;100.00;95863.34;5084575;28;19932;-74
2024/01/07 02:46:50;;;;;;;;;;;;;;;3.08;100.00;95859.16;5084097;28;20215;-73
2024/01/07 02:49:16;;;;;;;;;;;;;;;3.04;100.00;95861.31;5084570;28;19979;-73
2024/01/07 02:51:45;;;;;;;;;;;;;;;3.04;100.00;95866.50;5084463;28;20117;-72
2024/01/07 02:54:10;;;;;;;;;;;;;;;3.03;100.00;95860.50;5084343;28;19958;-70
2024/01/07 02:56:36;;;;;;;;;;;;;;;3.06;100.00;95861.91;5084390;28;19970;-75
2024/01/07 02:59:02;;;;;;;;;;;;;;;3.08;100.00;95853.97;5084357;28;19943;-75
2024/01/07 03:01:28;;;;;;;;;;;;;;;3.10;100.00;95854.59;5085035;28;19944;-74
2024/01/07 03:03:54;;;;;;;;;;;;;;;3.10;100.00;95863.16;5084212;28;20012;-74
2024/01/07 03:06:19;;;;;;;;;;;;;;;3.09;100.00;95861.56;5085038;28;19937;-74
2024/01/07 03:08:48;;;;;;;;;;;;;;;3.10;100.00;95867.53;5084104;28;19955;-75
2024/01/07 03:11:14;;;;;;;;;;;;;;;3.07;100.00;95860.97;5084210;28;19939;-74
2024/01/07 03:13:40;;;;;;;;;;;;;;;3.05;100.00;95865.50;5084075;28;19983;-74
2024/01/07 03:16:06;;;;;;;;;;;;;;;3.05;100.00;95870.69;5084138;28;20035;-74
2024/01/07 03:18:31;;;;;;;;;;;;;;;3.01;100.00;95870.25;5084588;28;19933;-75
2024/01/07 03:20:57;;;;;;;;;;;;;;;2.96;100.00;95874.38;5084526;28;19934;-74
2024/01/07 03:23:23;;;;;;;;;;;;;;;2.91;100.00;95872.34;5084015;28;19949;-75
2024/01/07 03:25:49;;;;;;;;;;;;;;;2.90;100.00;95875.09;5083966;28;19941;-76
2024/01/07 03:28:15;;;;;;;;;;;;;;;2.89;100.00;95882.09;5083991;28;19942;-73
2024/01/07 03:30:41;;;;;;;;;;;;;;;2.89;100.00;95874.31;5084006;28;19932;-85
2024/01/07 03:33:07;;;;;;;;;;;;;;;2.90;100.00;95881.09;5083869;28;19954;-77
2024/01/07 03:35:33;;;;;;;;;;;;;;;2.89;100.00;95879.50;5083910;28;20004;-76
2024/01/07 03:37:58;;;;;;;;;;;;;;;2.89;100.00;95878.69;5083852;28;19941;-76
2024/01/07 03:40:24;;;;;;;;;;;;;;;2.88;100.00;95871.91;5084410;28;19942;-75
2024/01/07 03:42:50;;;;;;;;;;;;;;;2.89;100.00;95879.50;5084646;28;19943;-76
2024/01/07 03:45:16;;;;;;;;;;;;;;;2.89;100.00;95879.50;5083865;28;19939;-76
2024/01/07 03:47:42;;;;;;;;;;;;;;;2.89;100.00;95881.28;5087271;28;19942;-67
2024/01/07 03:50:08;;;;;;;;;;;;;;;2.84;100.00;95882.63;5088559;28;19931;-73
2024/01/07 03:52:35;;;;;;;;;;;;;;;2.81;100.00;95880.44;5087933;28;19944;-74
2024/01/07 03:55:01;;;;;;;;;;;;;;;2.80;100.00;95876.22;5088579;28;19955;-73
2024/01/07 03:57:27;;;;;;;;;;;;;;;2.80;100.00;95883.97;5088077;28;19939;-75
2024/01/07 03:59:53;;;;;;;;;;;;;;;2.80;100.00;95883.97;5087632;28;19943;-74
2024/01/07 04:02:18;;;;;;;;;;;;;;;2.79;100.00;95884.16;5087724;28;20008;-74
2024/01/07 04:04:44;;;;;;;;;;;;;;;2.78;100.00;95883.38;5087625;28;19942;-74
2024/01/07 04:07:10;;;;;;;;;;;;;;;2.79;100.00;95889.34;5087659;28;19948;-75
2024/01/07 04:09:36;;;;;;;;;;;;;;;2.80;100.00;95893.53;5087378;28;19963;-77
2024/01/07 04:12:02;;;;;;;;;;;;;;;2.79;100.00;95884.97;5087489;28;19944;-79
2024/01/07 04:14:29;;;;;;;;;;;;;;;2.82;100.00;95889.00;5087396;28;19960;-76
2024/01/07 04:16:55;;;;;;;;;;;;;;;2.81;100.00;95885.59;5087365;28;19941;-78
2024/01/07 04:19:20;;;;;;;;;;;;;;;2.82;100.00;95884.59;5088199;28;19939;-77
2024/01/07 04:21:46;;;;;;;;;;;;;;;2.80;100.00;95886.56;5087358;28;19941;-78
2024/01/07 04:24:14;;;;;;;;;;;;;;;2.80;100.00;95891.75;5087324;28;19934;-69
2024/01/07 04:26:40;;;;;;;;;;;;;;;2.80;100.00;95891.75;5087209;28;19939;-70
2024/01/07 04:29:06;;;;;;;;;;;;;;;2.80;100.00;95883.97;5087210;28;20005;-67
2024/01/07 04:31:32;;;;;;;;;;;;;;;2.83;100.00;95893.16;5087012;28;19939;-67
2024/01/07 04:33:58;;;;;;;;;;;;;;;2.84;100.00;95897.38;5087775;28;20014;-67
2024/01/07 04:36:24;;;;;;;;;;;;;;;2.82;100.00;95894.97;5087035;28;19963;-68
2024/01/07 04:38:49;;;;;;;;;;;;;;;2.83;100.00;95898.34;5085904;28;20191;-68
2024/01/07 04:41:15;;;;;;;;;;;;;;;2.85;100.00;95904.16;5087452;28;19945;-67
2024/01/07 04:43:42;;;;;;;;;;;;;;;2.84;100.00;95903.34;5087457;28;19979;-78
2024/01/07 04:46:10;;;;;;;;;;;;;;;2.85;100.00;95907.53;5086911;28;19940;-70
2024/01/07 04:48:36;;;;;;;;;;;;;;;2.85;100.00;95910.13;5087641;28;20085;-70
2024/01/07 04:51:02;;;;;;;;;;;;;;;2.85;100.00;95909.31;5087090;28;19942;-70
2024/01/07 04:53:27;;;;;;;;;;;;;;;2.85;100.00;95912.72;5087505;28;19939;-70
2024/01/07 04:55:53;;;;;;;;;;;;;;;2.87;100.00;95911.75;5086729;28;19941;-71
2024/01/07 04:58:19;;;;;;;;;;;;;;;2.86;100.00;95905.75;5086198;28;20239;-71
2024/01/07 05:00:45;;;;;;;;;;;;;;;2.87;100.00;95909.94;5086548;28;19945;-76
2024/01/07 05:03:11;;;;;;;;;;;;;;;2.89;100.00;95909.78;5086634;28;19942;-77
2024/01/07 05:05:38;;;;;;;;;;;;;;;2.93;100.00;95914.41;5087333;28;19980;-71
2024/01/07 05:08:04;;;;;;;;;;;;;;;3.07;100.00;95911.94;5086666;28;19960;-69
2024/01/07 05:10:29;;;;;;;;;;;;;;;3.07;100.00;95919.72;5086355;28;19963;-70
2024/01/07 05:12:55;;;;;;;;;;;;;;;3.03;100.00;95921.88;5086426;28;20238;-70
2024/01/07 05:15:21;;;;;;;;;;;;;;;2.98;100.00;95925.03;5086321;28;20022;-70
2024/01/07 05:17:47;;;;;;;;;;;;;;;2.96;100.00;95923.59;5085166;28;19947;-70
2024/01/07 05:20:15;;;;;;;;;;;;;;;2.93;100.00;95935.13;5086347;28;19940;-77
2024/01/07 05:22:40;;;;;;;;;;;;;;;2.91;100.00;95931.91;5086206;28;19938;-72
2024/01/07 05:25:06;;;;;;;;;;;;;;;2.88;100.00;95927.09;5086991;28;19944;-72
2024/01/07 05:27:32;;;;;;;;;;;;;;;2.87;100.00;95930.66;5086123;28;19942;-71
2024/01/07 05:29:58;;;;;;;;;;;;;;;2.87;100.00;95930.66;5085994;28;19936;-73
2024/01/07 05:32:24;;;;;;;;;;;;;;;2.87;100.00;95929.88;5086082;28;19936;-73
2024/01/07 05:34:50;;;;;;;;;;;;;;;2.86;100.00;95931.66;5085951;28;19956;-71
2024/01/07 05:37:16;;;;;;;;;;;;;;;2.83;100.00;95924.25;5086058;28;19938;-76
2024/01/07 05:39:42;;;;;;;;;;;;;;;2.84;100.00;95925.84;5085977;28;20000;-74
2024/01/07 05:42:07;;;;;;;;;;;;;;;2.83;100.00;95935.41;5085906;28;19940;-75
2024/01/07 05:44:33;;;;;;;;;;;;;;;2.84;100.00;95939.59;5086659;28;19942;-74
2024/01/07 05:46:59;;;;;;;;;;;;;;;2.84;100.00;95931.03;5085775;28;19935;-75
2024/01/07 05:49:25;;;;;;;;;;;;;;;2.82;100.00;95938.19;5085753;28;20002;-74
2024/01/07 05:51:51;;;;;;;;;;;;;;;2.83;100.00;95944.97;5085640;28;20274;-73
2024/01/07 05:54:16;;;;;;;;;;;;;;;2.84;100.00;95944.00;5085586;28;20003;-74
2024/01/07 05:56:43;;;;;;;;;;;;;;;2.83;100.00;95950.97;5085597;28;20020;-73
2024/01/07 05:59:08;;;;;;;;;;;;;;;2.82;100.00;95951.13;5085729;28;19944;-73
2024/01/07 06:01:35;;;;;;;;;;;;;;;2.80;100.00;95950.50;5085868;28;19942;-73
2024/01/07 06:04:00;;;;;;;;;;;;;;;2.80;100.00;95946.13;5085740;28;20137;-72
2024/01/07 06:06:26;;;;;;;;;;;;;;;2.78;100.00;95948.09;5085412;28;19936;-72
2024/01/07 06:08:52;;;;;;;;;;;;;;;2.75;100.00;95945.88;5084269;28;19951;-73
2024/01/07 06:11:20;;;;;;;;;;;;;;;2.76;100.00;95952.66;5085867;28;19941;-71
2024/01/07 06:13:46;;;;;;;;;;;;;;;2.76;100.00;95952.66;5085166;28;19940;-72
2024/01/07 06:16:12;;;;;;;;;;;;;;;2.75;100.00;95960.59;5085771;28;19940;-71
2024/01/07 06:18:39;;;;;;;;;;;;;;;2.74;100.00;95954.63;5085703;28;19949;-75
2024/01/07 06:21:05;;;;;;;;;;;;;;;2.76;100.00;95957.03;5085597;28;19937;-74
2024/01/07 06:23:34;;;;;;;;;;;;;;;2.75;100.00;95955.41;5085038;28;19941;-74
2024/01/07 06:26:00;;;;;;;;;;;;;;;2.74;100.00;95959.00;5083824;28;20230;-75
2024/01/07 06:28:25;;;;;;;;;;;;;;;2.71;100.00;95962.75;5084942;28;19937;-75
2024/01/07 06:30:51;;;;;;;;;;;;;;;2.71;100.00;95967.13;5084890;28;19972;-74
2024/01/07 06:33:17;;;;;;;;;;;;;;;2.69;100.00;95962.13;5084385;28;19948;-74
2024/01/07 06:35:43;;;;;;;;;;;;;;;2.66;100.00;95969.44;5085022;28;19958;-74
2024/01/07 06:38:09;;;;;;;;;;;;;;;2.66;100.00;95977.22;5084779;28;19943;-75
2024/01/07 06:40:34;;;;;;;;;;;;;;;2.67;100.00;95976.22;5084759;28;20159;-74
2024/01/07 06:43:00;;;;;;;;;;;;;;;2.68;100.00;95980.44;5084032;28;19966;-75
2024/01/07 06:45:26;;;;;;;;;;;;;;;2.68;100.00;95977.84;5084681;28;20156;-74
2024/01/07 06:47:53;;;;;;;;;;;;;;;2.65;100.00;95981.59;5084580;28;19981;-75
2024/01/07 06:50:20;;;;;;;;;;;;;;;2.66;100.00;95987.56;5084585;28;19933;-75
2024/01/07 06:52:46;;;;;;;;;;;;;;;2.62;100.00;95982.75;5085064;28;19944;-76
2024/01/07 06:55:12;;;;;;;;;;;;;;;2.60;100.00;95989.06;5084392;28;19988;-70
2024/01/07 06:57:37;;;;;;;;;;;;;;;2.62;100.00;95987.13;5084955;28;19935;-70
2024/01/07 07:00:05;;;;;;;;;;;;;;;2.61;100.00;95994.09;5083700;28;21034;-70
2024/01/07 07:02:31;;;;;;;;;;;;;;;2.61;100.00;95995.88;5084882;28;20214;-70
2024/01/07 07:04:57;;;;;;;;;;;;;;;2.59;100.00;95996.06;5084330;28;19947;-70
2024/01/07 07:07:23;;;;;;;;;;;;;;;2.56;100.00;96003.34;5084328;28;19938;-70
2024/01/07 07:09:49;;;;;;;;;;;;;;;2.57;100.00;96010.16;5083970;28;19970;-75
2024/01/07 07:12:14;;;;;;;;;;;;;;;2.56;100.00;96014.53;5084222;28;19949;-70
2024/01/07 07:14:40;;;;;;;;;;;;;;;2.56;100.00;96018.88;5084616;28;19956;-75
2024/01/07 07:17:06;;;;;;;;;;;;;;;2.54;100.00;96020.84;5084696;28;19940;-74
2024/01/07 07:19:32;;;;;;;;;;;;;;;2.52;100.00;96023.63;5084648;28;19951;-75
2024/01/07 07:21:58;;;;;;;;;;;;;;;2.50;100.00;96027.38;5083963;28;19942;-75
2024/01/07 07:24:24;;;;;;;;;;;;;;;2.48;100.00;96027.56;5083493;28;20004;-75
2024/01/07 07:26:49;;;;;;;;;;;;;;;2.46;100.00;96037.28;5084026;28;19997;-75
2024/01/07 07:29:15;;;;;;;;;;;;;;;2.48;100.00;96037.09;5084044;28;19952;-77
2024/01/07 07:31:41;;;;;;;;;;;;;;;2.48;100.00;96045.69;5084519;28;19932;-67
2024/01/07 07:34:09;;;;;;;;;;;;;;;2.47;100.00;96038.09;5083893;28;20006;-66
2024/01/07 07:36:34;;;;;;;;;;;;;;;2.48;100.00;96048.28;5083973;28;19963;-67
2024/01/07 07:39:00;;;;;;;;;;;;;;;2.46;100.00;96052.81;5084644;28;20208;-67
2024/01/07 07:41:26;;;;;;;;;;;;;;;2.47;100.00;96048.44;5083834;28;19959;-68
2024/01/07 07:43:52;;;;;;;;;;;;;;;2.45;100.00;96051.19;5083878;28;20144;-67
2024/01/07 07:46:18;;;;;;;;;;;;;;;2.44;100.00;96055.56;5083890;28;19941;-77
2024/01/07 07:48:43;;;;;;;;;;;;;;;2.43;100.00;96051.34;5083775;28;19942;-72
2024/01/07 07:51:10;;;;;;;;;;;;;;;2.42;100.00;96051.56;5083742;28;19947;-76
2024/01/07 07:53:37;;;;;;;;;;;;;;;2.39;100.00;96052.72;5083730;28;19937;-75
2024/01/07 07:56:03;;;;;;;;;;;;;;;2.40;100.00;96066.47;5083548;28;19956;-77
2024/01/07 07:58:29;;;;;;;;;;;;;;;2.39;100.00;96060.47;5084220;28;19941;-76
2024/01/07 08:00:55;;;;;;;;;;;;;;;2.38;100.00;96064.03;5083651;28;19941;-75
2024/01/07 08:03:21;;;;;;;;;;;;;;;2.37;100.00;96064.19;5083608;28;19942;-76
2024/01/07 08:05:47;;;;;;;;;;;;;;;2.37;100.00;96066.78;5083670;28;20218;-76
2024/01/07 08:08:13;;;;;;;;;;;;;;;2.34;100.00;96067.16;5083634;28;20298;-67
2024/01/07 08:10:39;;;;;;;;;;;;;;;2.36;100.00;96065.19;5083512;28;19982;-67
2024/01/07 08:13:06;;;;;;;;;;;;;;;2.37;100.00;96070.22;5083994;28;19940;-68
2024/01/07 08:15:32;;;;;;;;;;;;;;;2.38;100.00;96073.59;5083968;28;19981;-67
2024/01/07 08:17:58;;;;;;;;;;;;;;;2.38;100.00;96081.34;5083413;28;20228;-67
2024/01/07 08:20:23;;;;;;;;;;;;;;;2.40;100.00;96079.41;5083525;28;19951;-68
2024/01/07 08:22:50;;;;;;;;;;;;;;;2.38;100.00;96071.00;5084042;28;19939;-76
2024/01/07 08:25:16;;;;;;;;;;;;;;;2.33;100.00;96079.28;5083537;28;19935;-70
2024/01/07 08:27:42;;;;;;;;;;;;;;;2.31;100.00;96083.84;5084226;28;19942;-77
2024/01/07 08:30:08;;;;;;;;;;;;;;;2.28;100.00;96086.75;5083413;28;19950;-75
2024/01/07 08:32:34;;;;;;;;;;;;;;;2.26;100.00;96085.34;5084993;28;19942;-75
2024/01/07 08:35:00;;;;;;;;;;;;;;;2.24;100.00;96085.50;5087007;28;19958;-74
2024/01/07 08:37:26;;;;;;;;;;;;;;;2.24;100.00;96091.47;5087124;28;19943;-74
2024/01/07 08:39:52;;;;;;;;;;;;;;;2.26;100.00;96090.50;5087001;28;19936;-75
2024/01/07 08:42:19;;;;;;;;;;;;;;;2.23;100.00;96091.66;5087059;28;19945;-77
2024/01/07 08:44:45;;;;;;;;;;;;;;;2.27;100.00;96097.28;5086972;28;19936;-71
2024/01/07 08:47:11;;;;;;;;;;;;;;;2.31;100.00;96103.72;5086860;28;19931;-70
2024/01/07 08:49:38;;;;;;;;;;;;;;;2.35;100.00;96095.44;5087638;28;20087;-70
2024/01/07 08:52:04;;;;;;;;;;;;;;;2.38;100.00;96092.50;5085702;28;20034;-70
2024/01/07 08:54:30;;;;;;;;;;;;;;;2.38;100.00;96104.63;5086989;28;20157;-70
2024/01/07 08:56:56;;;;;;;;;;;;;;;2.37;100.00;96101.25;5087201;28;20006;-71
2024/01/07 08:59:22;;;;;;;;;;;;;;;2.39;100.00;96104.47;5086711;28;19944;-70
2024/01/07 09:01:47;;;;;;;;;;;;;;;2.39;100.00;96108.81;5086593;28;19940;-77
2024/01/07 09:04:13;;;;;;;;;;;;;;;2.38;100.00;96112.41;5086697;28;19943;-75
2024/01/07 09:06:40;;;;;;;;;;;;;;;2.37;100.00;96123.72;5086620;28;19991;-76
2024/01/07 09:09:06;;;;;;;;;;;;;;;2.39;100.00;96114.00;5085224;28;20280;-77
2024/01/07 09:11:32;;;;;;;;;;;;;;;2.40;100.00;96123.38;5087294;28;19944;-76
2024/01/07 09:13:58;;;;;;;;;;;;;;;2.43;100.00;96126.41;5086419;28;19946;-76
2024/01/07 09:16:23;;;;;;;;;;;;;;;2.43;100.00;96133.38;5085500;28;19954;-77
2024/01/07 09:18:50;;;;;;;;;;;;;;;2.39;100.00;96139.88;5086337;28;19942;-74
2024/01/07 09:21:16;;;;;;;;;;;;;;;2.35;100.00;96133.44;5086345;28;20235;-77
2024/01/07 09:23:43;;;;;;;;;;;;;;;2.32;100.00;96144.94;5086257;28;19939;-79
2024/01/07 09:26:09;;;;;;;;;;;;;;;2.30;100.00;96140.94;5086749;28;19999;-78
2024/01/07 09:28:35;;;;;;;;;;;;;;;2.26;100.00;96144.84;5087082;28;19935;-78
2024/01/07 09:31:01;;;;;;;;;;;;;;;2.22;100.00;96152.13;5086044;28;20152;-78
2024/01/07 09:33:26;;;;;;;;;;;;;;;2.19;100.00;96152.50;5086112;28;19958;-78
2024/01/07 09:35:54;;;;;;;;;;;;;;;2.18;100.00;96153.44;5085936;28;19960;-78
2024/01/07 09:38:20;;;;;;;;;;;;;;;2.11;100.00;96149.97;5086398;28;20124;-71
2024/01/07 09:40:46;;;;;;;;;;;;;;;2.07;100.00;96152.06;5086480;28;19933;-80
2024/01/07 09:43:11;;;;;;;;;;;;;;;2.09;100.00;96149.31;5085336;28;20099;-79
2024/01/07 09:45:41;;;;;;;;;;;;;;;2.20;100.00;96164.44;5085688;28;19942;-77
2024/01/07 09:48:07;;;;;;;;;;;;;;;2.90;100.00;96155.63;5086067;28;20105;-76
2024/01/07 09:50:33;;;;;;;;;;;;;;;3.60;100.00;96149.19;5086559;28;19956;-74
2024/01/07 09:53:02;;;;;;;;;;;;;;;3.64;100.00;96152.22;5085685;28;19936;-77
2024/01/07 09:55:33;;;;;;;;;;;;;;;3.40;100.00;96148.94;5085610;28;19955;-75
2024/01/07 09:57:59;;;;;;;;;;;;;;;3.15;100.00;96155.38;5085435;28;19939;-74
2024/01/07 10:00:26;;;;;;;;;;;;;;;2.95;100.00;96150.72;5085564;28;20121;-76
2024/01/07 10:02:53;;;;;;;;;;;;;;;2.84;100.00;96153.75;5084387;28;20217;-76
2024/01/07 10:05:19;;;;;;;;;;;;;;;2.75;100.00;96152.19;5068405;28;19939;-76
2024/01/07 10:07:44;;;;;;;;;;;;;;;2.65;100.00;96147.28;5085317;28;19942;-76
2024/01/07 10:10:14;;;;;;;;;;;;;;;2.55;100.00;96149.31;5085560;28;19970;-76
2024/01/07 10:12:40;;;;;;;;;;;;;;;2.49;100.00;96144.81;5085394;28;19940;-76
2024/01/07 10:15:06;;;;;;;;;;;;;;;2.42;100.00;96158.47;5085208;28;19956;-66
2024/01/07 10:17:32;;;;;;;;;;;;;;;2.35;100.00;96151.56;5085766;28;19939;-71
2024/01/07 10:19:58;;;;;;;;;;;;;;;2.31;100.00;96152.88;5085176;28;19943;-70
2024/01/07 10:22:24;;;;;;;;;;;;;;;2.28;100.00;96151.44;5085707;28;19944;-69
2024/01/07 10:24:51;;;;;;;;;;;;;;;2.23;100.00;96154.56;5085036;28;19934;-70
2024/01/07 10:27:17;;;;;;;;;;;;;;;2.18;100.00;96151.69;5085023;28;19950;-71
2024/01/07 10:29:43;;;;;;;;;;;;;;;2.15;100.00;96157.19;5084868;28;19942;-73
2024/01/07 10:32:09;;;;;;;;;;;;;;;2.12;100.00;96157.56;5085783;28;19940;-74
2024/01/07 10:34:35;;;;;;;;;;;;;;;2.11;100.00;96157.72;5084897;28;19943;-70
2024/01/07 10:37:02;;;;;;;;;;;;;;;2.08;100.00;96158.88;5084773;28;19946;-66
2024/01/07 10:39:28;;;;;;;;;;;;;;;2.06;100.00;96154.81;5084776;28;19940;-67
2024/01/07 10:41:58;;;;;;;;;;;;;;;2.02;100.00;96156.97;5084733;28;19940;-67
2024/01/07 10:44:29;;;;;;;;;;;;;;;2.01;100.00;96156.13;5084670;28;19934;-66
2024/01/07 10:46:55;;;;;;;;;;;;;;;2.01;100.00;96157.94;5084620;28;20237;-67
2024/01/07 10:49:22;;;;;;;;;;;;;;;2.03;100.00;96161.16;5084590;28;19943;-67
2024/01/07 10:51:54;;;;;;;;;;;;;;;2.01;100.00;96148.38;5084721;28;19935;-71
2024/01/07 10:54:21;;;;;;;;;;;;;;;2.02;100.00;96157.75;5085090;28;19945;-70
2024/01/07 10:56:50;;;;;;;;;;;;;;;2.00;100.00;96156.34;5084515;28;19950;-70
2024/01/07 10:59:16;;;;;;;;;;;;;;;1.99;100.00;96162.47;5084445;28;19937;-70
2024/01/07 11:01:43;;;;;;;;;;;;;;;1.95;100.00;96164.59;5085169;28;19969;-70
2024/01/07 11:04:19;;;;;;;;;;;;;;;1.91;100.00;96167.69;5085177;28;19941;-70
2024/01/07 11:06:48;;;;;;;;;;;;;;;1.86;100.00;96164.81;5085083;28;19934;-71
2024/01/07 11:09:23;;;;;;;;;;;;;;;1.86;100.00;96162.22;5084000;28;19963;-67
2024/01/07 11:11:49;;;;;;;;;;;;;;;1.85;100.00;96168.34;5085101;28;20126;-74
2024/01/07 11:14:34;;;;;;;;;;;;;;;1.81;100.00;96165.31;5084477;28;19937;-74
2024/01/07 11:17:02;;;;;;;;;;;;;;;1.74;100.00;96154.03;5084099;28;20254;-74
2024/01/07 11:19:28;;;;;;;;;;;;;;;1.75;100.00;96166.81;5084233;28;19939;-73
2024/01/07 11:22:14;;;;;;;;;;;;;;;1.67;100.00;96156.50;5084662;28;19961;-74
2024/01/07 11:24:41;;;;;;;;;;;;;;;1.63;100.00;96168.16;5084023;28;19941;-74
2024/01/07 11:27:08;;;;;;;;;;;;;;;1.57;100.00;96172.19;5084654;28;19941;-76
2024/01/07 11:29:35;;;;;;;;;;;;;;;1.84;100.00;96164.97;5084050;28;19943;-77
2024/01/07 11:32:01;;;;;;;;;;;;;;;1.94;100.00;96159.59;5084517;28;20025;-68
2024/01/07 11:34:51;;;;;;;;;;;;;;;1.85;100.00;96168.34;5084563;28;20207;-68
2024/01/07 11:37:17;;;;;;;;;;;;;;;1.67;100.00;96169.41;5084516;28;19947;-68
2024/01/07 11:39:47;;;;;;;;;;;;;;;1.59;100.00;96166.88;5083786;28;20036;-68
2024/01/07 11:42:13;;;;;;;;;;;;;;;1.49;100.00;96164.50;5083943;28;19941;-67
2024/01/07 11:44:49;;;;;;;;;;;;;;;1.44;100.00;96176.31;5084350;28;19936;-67
2024/01/07 11:47:16;;;;;;;;;;;;;;;1.37;100.00;96176.97;5084100;28;19942;-78
2024/01/07 11:49:41;;;;;;;;;;;;;;;1.34;100.00;96179.06;5083815;28;19943;-79
2024/01/07 11:52:09;;;;;;;;;;;;;;;1.34;100.00;96181.66;5083774;28;20220;-79
2024/01/07 11:54:34;;;;;;;;;;;;;;;1.32;100.00;96181.81;5084360;28;19941;-78
2024/01/07 11:57:01;;;;;;;;;;;;;;;1.32;100.00;96184.41;5083666;28;19978;-79
2024/01/07 11:59:27;;;;;;;;;;;;;;;1.31;100.00;96187.97;5083735;28;19939;-79
2024/01/07 12:01:54;;;;;;;;;;;;;;;1.30;100.00;96196.72;5083761;28;20215;-79
2024/01/07 12:04:20;;;;;;;;;;;;;;;1.30;100.00;96191.53;5083736;28;19934;-74
2024/01/07 12:06:47;;;;;;;;;;;;;;;1.30;100.00;96196.72;5083786;28;19933;-69
2024/01/07 12:09:13;;;;;;;;;;;;;;;1.30;100.00;96193.28;5087977;28;19976;-78
2024/01/07 12:11:41;;;;;;;;;;;;;;;1.28;100.00;96192.66;5087750;28;19942;-79
2024/01/07 12:14:10;;;;;;;;;;;;;;;1.28;100.00;96185.72;5087288;28;19944;-78
2024/01/07 12:16:36;;;;;;;;;;;;;;;1.30;100.00;96191.53;5088061;28;19947;-79
2024/01/07 12:19:02;;;;;;;;;;;;;;;1.29;100.00;96189.91;5087515;28;19934;-79
2024/01/07 12:21:29;;;;;;;;;;;;;;;1.28;100.00;96193.47;5087535;28;20185;-79
2024/01/07 12:23:56;;;;;;;;;;;;;;;1.27;100.00;96191.84;5087465;28;19943;-73
2024/01/07 12:26:26;;;;;;;;;;;;;;;1.23;100.00;96190.56;5087393;28;19948;-79
2024/01/07 12:28:56;;;;;;;;;;;;;;;1.26;100.00;96192.84;5087224;28;19934;-79
2024/01/07 12:31:23;;;;;;;;;;;;;;;1.24;100.00;96189.63;5087848;28;20109;-79
2024/01/07 12:33:49;;;;;;;;;;;;;;;1.23;100.00;96192.34;5087192;28;20216;-80
2024/01/07 12:36:15;;;;;;;;;;;;;;;1.24;100.00;96197.38;5087082;28;19964;-79
2024/01/07 12:38:41;;;;;;;;;;;;;;;1.54;100.00;96195.00;5087152;28;19964;-77
2024/01/07 12:41:07;;;;;;;;;;;;;;;2.56;100.00;96182.78;5087085;28;19938;-74
2024/01/07 12:43:33;;;;;;;;;;;;;;;2.73;100.00;96183.47;5087090;28;19939;-75